Phoenix (PHX/KPHX)

Information

Location
Phoenix, AZ
Local Time
18:52 / 6:52 pm
GMT Time
01:52 / 1:52 am
Gates
No FAA reported delays
METAR KPHX 250051Z 00000KT 10SM FEW200 FEW250 27/02 A2986 RMK AO2 SLP099 T02670022
TAF KPHX 242320Z 2500/2606 26004KT P6SM FEW250 FM250400 10004KT P6SM SCT250 FM252100 26004KT P6SM SCT250 FM260500 09004KT P6SM SCT250